createdAt,value
2022-10-06T00:01:39.838Z,3.05
2022-10-06T00:04:06.444Z,3.65
2022-10-06T00:06:34.338Z,2.53
2022-10-06T00:11:27.434Z,2.38
2022-10-06T00:13:53.985Z,2.92
2022-10-06T00:16:24.615Z,4.90
2022-10-06T00:18:51.285Z,4.82
2022-10-06T00:21:18.229Z,3.20
2022-10-06T00:23:44.843Z,4.00
2022-10-06T00:26:17.194Z,0.55
2022-10-06T00:28:47.031Z,2.17
2022-10-06T00:31:13.859Z,0.80
2022-10-06T00:33:40.421Z,2.03
2022-10-06T00:36:07.586Z,2.88
2022-10-06T00:38:34.832Z,3.73
2022-10-06T00:41:01.445Z,1.40
2022-10-06T00:43:46.372Z,4.82
2022-10-06T00:46:17.108Z,5.00
2022-10-06T00:48:46.431Z,3.25
2022-10-06T00:51:14.273Z,4.93
2022-10-06T00:56:08.014Z,4.50
2022-10-06T00:58:34.802Z,4.50
2022-10-06T01:01:03.522Z,3.70
2022-10-06T01:03:33.059Z,5.68
2022-10-06T01:06:02.210Z,4.85
2022-10-06T01:08:31.160Z,3.75
2022-10-06T01:10:58.276Z,7.47
2022-10-06T01:13:26.709Z,5.30
2022-10-06T01:16:03.730Z,3.30
2022-10-06T01:18:32.171Z,5.47
2022-10-06T01:21:17.420Z,5.30
2022-10-06T01:23:44.595Z,3.80
2022-10-06T01:26:13.494Z,5.97
2022-10-06T01:28:41.362Z,3.58
2022-10-06T01:31:09.594Z,3.72
2022-10-06T01:33:36.336Z,4.00
2022-10-06T01:36:03.234Z,2.97
2022-10-06T01:38:30.128Z,4.70
2022-10-06T01:40:56.997Z,5.70
2022-10-06T01:43:23.588Z,5.03
2022-10-06T01:45:57.666Z,3.67
2022-10-06T01:48:25.631Z,5.55
2022-10-06T01:50:52.553Z,6.07
2022-10-06T01:53:19.204Z,4.88
2022-10-06T01:55:46.506Z,4.00
2022-10-06T01:58:14.452Z,7.75
2022-10-06T02:00:41.142Z,4.28
2022-10-06T02:03:08.401Z,5.68
2022-10-06T02:05:35.551Z,7.75
2022-10-06T02:08:02.850Z,4.40
2022-10-06T02:10:29.697Z,9.75
2022-10-06T02:12:56.567Z,2.90
2022-10-06T02:15:23.262Z,8.83
2022-10-06T02:17:50.287Z,3.87
2022-10-06T02:20:17.056Z,2.75
2022-10-06T02:22:43.902Z,4.20
2022-10-06T02:25:12.352Z,4.03
2022-10-06T02:27:39.708Z,11.48
2022-10-06T02:30:07.876Z,3.80
2022-10-06T02:32:36.403Z,6.40
2022-10-06T02:35:04.238Z,7.63
2022-10-06T02:39:58.067Z,8.73
2022-10-06T02:42:24.837Z,4.78
2022-10-06T02:44:52.352Z,7.25
2022-10-06T02:47:19.848Z,7.68
2022-10-06T02:49:46.545Z,4.30
2022-10-06T02:52:15.751Z,11.38
2022-10-06T02:54:42.919Z,9.10
2022-10-06T02:57:09.662Z,8.33
2022-10-06T02:59:36.697Z,9.32
2022-10-06T03:02:03.813Z,4.93
2022-10-06T03:04:30.770Z,8.23
2022-10-06T03:06:57.687Z,5.00
2022-10-06T03:09:24.446Z,8.68
2022-10-06T03:11:51.173Z,6.25
2022-10-06T03:14:21.672Z,12.05
2022-10-06T03:16:50.360Z,7.95
2022-10-06T03:19:17.092Z,8.48
2022-10-06T03:21:45.219Z,12.15
2022-10-06T03:24:12.527Z,11.25
2022-10-06T03:26:44.198Z,6.75
2022-10-06T03:29:12.170Z,7.28
2022-10-06T03:31:40.285Z,6.53
2022-10-06T03:34:07.044Z,7.65
2022-10-06T03:36:35.147Z,8.18
2022-10-06T03:39:03.917Z,6.53
2022-10-06T03:41:32.327Z,9.82
2022-10-06T03:43:59.916Z,7.68
2022-10-06T03:46:28.950Z,10.15
2022-10-06T03:48:57.453Z,7.80
2022-10-06T03:51:31.403Z,7.53
2022-10-06T03:53:59.258Z,8.77
2022-10-06T03:59:00.531Z,7.05
2022-10-06T04:01:29.890Z,7.00
2022-10-06T04:03:58.382Z,10.93
2022-10-06T04:06:26.017Z,6.18
2022-10-06T04:08:53.337Z,7.70
2022-10-06T04:11:21.582Z,9.85
2022-10-06T04:13:52.253Z,5.82
2022-10-06T04:16:22.475Z,6.53
2022-10-06T04:18:52.210Z,7.05
2022-10-06T04:21:18.988Z,10.55
2022-10-06T04:23:46.051Z,8.18
2022-10-06T04:26:20.127Z,8.63
2022-10-06T04:28:47.483Z,14.77
2022-10-06T04:31:20.127Z,8.77
2022-10-06T04:33:48.144Z,6.68
2022-10-06T04:36:17.412Z,12.88
2022-10-06T04:38:44.226Z,5.45
2022-10-06T04:41:13.997Z,10.90
2022-10-06T04:43:41.196Z,12.98
2022-10-06T04:46:37.576Z,8.05
2022-10-06T04:48:57.253Z,7.63
2022-10-06T04:51:31.426Z,10.50
2022-10-06T04:53:58.606Z,9.85
2022-10-06T04:56:29.436Z,9.55
2022-10-06T04:58:57.276Z,9.40
2022-10-06T05:01:29.627Z,12.18
2022-10-06T05:03:58.036Z,12.77
2022-10-06T05:06:28.666Z,8.35
2022-10-06T05:08:58.188Z,9.23
2022-10-06T05:11:26.099Z,11.25
2022-10-06T05:13:55.081Z,12.73
2022-10-06T05:16:23.128Z,11.40
2022-10-06T05:18:50.006Z,9.27
2022-10-06T05:21:19.117Z,22.33
2022-10-06T05:23:46.360Z,11.25
2022-10-06T05:26:16.406Z,14.52
2022-10-06T05:28:43.693Z,12.93
2022-10-06T05:31:16.063Z,10.85
2022-10-06T05:33:42.961Z,12.65
2022-10-06T05:36:15.223Z,13.45
2022-10-06T05:38:42.158Z,12.35
2022-10-06T05:41:15.843Z,10.23
2022-10-06T05:43:43.495Z,9.48
2022-10-06T05:46:30.416Z,9.50
2022-10-06T05:48:59.108Z,10.75
2022-10-06T05:51:30.669Z,11.32
2022-10-06T05:53:59.350Z,13.50
2022-10-06T05:56:28.119Z,6.20
2022-10-06T05:58:57.009Z,15.73
2022-10-06T06:01:31.832Z,12.20
2022-10-06T06:04:04.177Z,13.50
2022-10-06T06:06:45.468Z,15.20
2022-10-06T06:09:18.111Z,13.07
2022-10-06T06:11:47.213Z,17.15
2022-10-06T06:14:18.849Z,11.77
2022-10-06T06:16:46.653Z,8.23
2022-10-06T06:21:41.338Z,11.23
2022-10-06T06:24:08.308Z,8.23
2022-10-06T06:26:37.960Z,15.93
2022-10-06T06:33:41.897Z,9.60
2022-10-06T06:36:15.387Z,16.27
2022-10-06T06:38:42.378Z,11.85
2022-10-06T06:41:16.877Z,15.23
2022-10-06T06:43:44.011Z,14.02
2022-10-06T06:46:11.604Z,16.70
2022-10-06T06:48:38.364Z,11.00
2022-10-06T06:51:05.390Z,17.88
2022-10-06T06:53:32.277Z,16.93
2022-10-06T06:55:58.865Z,14.82
2022-10-06T06:58:25.683Z,16.95
2022-10-06T07:00:52.513Z,17.63
2022-10-06T07:03:52.152Z,12.90
2022-10-06T07:06:10.769Z,12.82
2022-10-06T07:08:39.652Z,12.13
2022-10-06T07:11:16.571Z,12.45
2022-10-06T07:13:44.075Z,15.20
2022-10-06T07:16:31.461Z,16.83
2022-10-06T07:19:20.098Z,13.70
2022-10-06T07:22:13.312Z,12.13
2022-10-06T07:24:58.355Z,14.15
2022-10-06T07:27:25.636Z,15.95
2022-10-06T07:29:55.566Z,12.18
2022-10-06T07:32:24.282Z,13.15
2022-10-06T07:34:51.856Z,11.75
2022-10-06T07:39:53.361Z,15.50
2022-10-06T07:42:20.407Z,18.85
2022-10-06T07:45:06.581Z,15.97
2022-10-06T07:47:33.550Z,12.45
2022-10-06T07:50:00.566Z,10.00
2022-10-06T07:52:30.617Z,12.00
2022-10-06T07:54:58.559Z,10.35
2022-10-06T07:57:35.471Z,10.90
2022-10-06T08:00:07.856Z,10.48
2022-10-06T08:02:35.888Z,12.38
2022-10-06T08:05:04.101Z,16.15
2022-10-06T08:09:57.159Z,10.73
2022-10-06T08:12:40.613Z,11.32
2022-10-06T08:15:08.761Z,12.98
2022-10-06T08:17:36.731Z,13.43
2022-10-06T08:20:08.057Z,10.82
2022-10-06T08:22:36.239Z,13.63
2022-10-06T08:25:08.267Z,10.55
2022-10-06T08:27:36.489Z,13.40
2022-10-06T08:30:05.796Z,13.57
2022-10-06T08:32:32.962Z,12.40
2022-10-06T08:34:59.747Z,14.13
2022-10-06T08:37:27.537Z,8.93
2022-10-06T08:39:54.986Z,9.15
2022-10-06T08:42:32.128Z,14.52
2022-10-06T08:45:05.022Z,16.15
2022-10-06T08:47:36.840Z,14.63
2022-10-06T08:50:09.864Z,11.85
2022-10-06T08:52:46.348Z,17.05
2022-10-06T08:55:34.468Z,11.50
2022-10-06T08:58:33.327Z,10.85
2022-10-06T09:01:07.986Z,11.10
2022-10-06T09:03:34.600Z,14.02
2022-10-06T09:06:13.066Z,14.43
2022-10-06T09:08:53.947Z,11.35
2022-10-06T09:11:26.524Z,13.10
2022-10-06T09:14:03.462Z,14.20
2022-10-06T09:16:39.944Z,13.00
2022-10-06T09:19:19.870Z,13.27
2022-10-06T09:21:52.184Z,11.75
2022-10-06T09:24:23.849Z,12.00
2022-10-06T09:26:52.034Z,14.70
2022-10-06T09:29:18.662Z,15.70
2022-10-06T09:31:50.597Z,7.45
2022-10-06T09:34:37.705Z,9.40
2022-10-06T09:37:08.027Z,9.20
2022-10-06T09:39:37.319Z,11.02
2022-10-06T09:42:10.058Z,7.32
2022-10-06T09:44:52.309Z,8.13
2022-10-06T09:47:36.763Z,13.25
2022-10-06T09:50:11.367Z,12.63
2022-10-06T09:52:42.036Z,16.75
2022-10-06T09:55:18.846Z,13.52
2022-10-06T09:57:51.693Z,12.02
2022-10-06T10:00:42.960Z,13.82
2022-10-06T10:03:13.858Z,12.98
2022-10-06T10:05:48.568Z,15.15
2022-10-06T10:08:19.782Z,25.00
2022-10-06T10:10:46.472Z,24.90
2022-10-06T10:13:21.869Z,7.82
2022-10-06T10:15:53.570Z,9.82
2022-10-06T10:18:26.825Z,8.35
2022-10-06T10:21:06.220Z,8.30
2022-10-06T10:23:55.739Z,10.82
2022-10-06T10:26:32.743Z,5.03
2022-10-06T10:29:17.530Z,6.00
2022-10-06T10:32:03.676Z,6.22
2022-10-06T10:35:00.449Z,6.82
2022-10-06T10:37:33.914Z,8.65
2022-10-06T10:40:17.730Z,7.53
2022-10-06T10:42:54.367Z,7.78
2022-10-06T10:45:34.600Z,4.43
2022-10-06T10:48:06.634Z,8.38
2022-10-06T10:50:50.188Z,4.97
2022-10-06T10:53:44.549Z,8.23
2022-10-06T10:56:13.741Z,7.55
2022-10-06T10:58:43.328Z,7.53
2022-10-06T11:01:15.757Z,5.80
2022-10-06T11:03:42.602Z,6.88
2022-10-06T11:06:23.236Z,4.13
2022-10-06T11:09:07.378Z,7.28
2022-10-06T11:11:41.551Z,7.90
2022-10-06T11:14:34.330Z,7.68
2022-10-06T11:17:01.422Z,5.80
2022-10-06T11:19:43.051Z,4.40
2022-10-06T11:22:17.838Z,7.07
2022-10-06T11:25:05.499Z,6.13
2022-10-06T11:27:35.197Z,4.95
2022-10-06T11:30:19.758Z,5.28
2022-10-06T11:33:07.965Z,6.07
2022-10-06T11:35:37.536Z,8.02
2022-10-06T11:38:25.411Z,6.30
2022-10-06T11:40:51.930Z,6.78
2022-10-06T11:44:00.705Z,8.65
2022-10-06T11:46:31.135Z,5.93
2022-10-06T11:49:29.740Z,3.20
2022-10-06T11:52:11.649Z,4.60
2022-10-06T11:54:52.427Z,4.72
2022-10-06T11:57:31.287Z,5.47
2022-10-06T12:00:16.222Z,9.13
2022-10-06T12:02:44.670Z,6.38
2022-10-06T12:08:01.262Z,6.60
2022-10-06T12:10:27.743Z,6.47
2022-10-06T12:27:31.129Z,5.03
2022-10-06T12:30:33.120Z,5.32
2022-10-06T12:33:03.669Z,6.13
2022-10-06T12:35:33.106Z,3.65
2022-10-06T12:38:07.225Z,5.10
2022-10-06T12:40:44.181Z,8.60
2022-10-06T12:43:19.683Z,7.50
2022-10-06T12:46:17.165Z,7.28
2022-10-06T12:48:46.811Z,5.78
2022-10-06T12:51:13.382Z,4.57
2022-10-06T12:53:50.541Z,9.90
2022-10-06T12:56:37.770Z,4.22
2022-10-06T12:59:24.574Z,14.93
2022-10-06T13:02:02.945Z,9.25
2022-10-06T13:04:40.536Z,6.65
2022-10-06T13:07:20.908Z,8.02
2022-10-06T13:09:50.612Z,9.20
2022-10-06T13:12:29.901Z,4.30
2022-10-06T13:15:16.065Z,6.10
2022-10-06T13:17:50.757Z,5.40
2022-10-06T13:20:38.622Z,4.28
2022-10-06T13:23:32.249Z,5.13
2022-10-06T13:26:04.132Z,3.80
2022-10-06T13:28:49.353Z,6.60
2022-10-06T13:31:26.793Z,4.03
2022-10-06T13:33:55.997Z,3.15
2022-10-06T13:36:23.686Z,4.43
2022-10-06T13:38:50.750Z,6.13
2022-10-06T13:41:43.241Z,5.70
2022-10-06T13:44:17.375Z,5.13
2022-10-06T13:46:50.996Z,4.28
2022-10-06T13:49:36.465Z,7.25
2022-10-06T13:52:18.370Z,3.03
2022-10-06T13:54:57.982Z,3.70
2022-10-06T13:57:45.528Z,3.30
2022-10-06T14:00:15.006Z,5.22
2022-10-06T14:02:48.642Z,3.05
2022-10-06T14:05:45.690Z,5.75
2022-10-06T14:08:12.243Z,3.53
2022-10-06T14:10:46.151Z,7.50
2022-10-06T14:13:23.634Z,4.60
2022-10-06T14:15:57.437Z,7.50
2022-10-06T14:18:34.836Z,4.95
2022-10-06T14:21:29.516Z,2.95
2022-10-06T14:23:56.700Z,4.50
2022-10-06T14:26:27.283Z,3.53
2022-10-06T14:28:54.567Z,4.63
2022-10-06T14:33:52.637Z,6.05
2022-10-06T14:36:23.193Z,4.60
2022-10-06T14:38:51.574Z,5.88
2022-10-06T14:41:19.601Z,4.25
2022-10-06T14:43:49.262Z,6.30
2022-10-06T14:46:16.093Z,4.00
2022-10-06T14:48:42.691Z,2.78
2022-10-06T14:51:09.618Z,4.00
2022-10-06T14:53:39.295Z,5.90
2022-10-06T14:56:13.881Z,8.50
2022-10-06T14:58:45.737Z,8.55
2022-10-06T15:01:14.814Z,2.67
2022-10-06T15:03:45.569Z,6.57
2022-10-06T15:06:33.391Z,7.22
2022-10-06T15:08:59.865Z,5.90
2022-10-06T15:11:28.730Z,6.77
2022-10-06T15:13:58.199Z,4.15
2022-10-06T15:16:28.926Z,4.35
2022-10-06T15:18:57.820Z,4.90
2022-10-06T15:21:25.204Z,3.45
2022-10-06T15:26:45.707Z,5.35
2022-10-06T15:29:13.440Z,5.80
2022-10-06T15:31:43.361Z,9.52
2022-10-06T15:34:13.360Z,4.90
2022-10-06T15:36:41.702Z,7.20
2022-10-06T15:39:10.581Z,4.93
2022-10-06T15:41:39.095Z,4.32
2022-10-06T15:44:06.409Z,7.03
2022-10-06T15:46:36.229Z,7.03
2022-10-06T15:49:05.481Z,17.70
2022-10-06T15:51:36.576Z,6.43
2022-10-06T15:54:04.618Z,9.27
2022-10-06T15:56:31.926Z,6.88
2022-10-06T15:58:59.089Z,8.80
2022-10-06T16:01:29.828Z,11.32
2022-10-06T16:03:58.350Z,5.43
2022-10-06T16:06:40.757Z,7.15
2022-10-06T16:09:09.511Z,8.38
2022-10-06T16:11:36.676Z,4.57
2022-10-06T16:14:03.672Z,8.40
2022-10-06T16:16:30.460Z,7.90
2022-10-06T16:18:57.185Z,5.80
2022-10-06T16:21:26.882Z,4.00
2022-10-06T16:23:54.127Z,5.80
2022-10-06T16:26:20.866Z,4.63
2022-10-06T16:28:47.545Z,1.67
2022-10-06T16:31:14.090Z,4.82
2022-10-06T16:33:41.065Z,5.77
2022-10-06T16:36:07.930Z,3.93
2022-10-06T16:38:34.419Z,2.50
2022-10-06T16:41:03.436Z,4.88
2022-10-06T16:43:34.715Z,3.38
2022-10-06T16:46:04.355Z,10.15
2022-10-06T16:48:39.620Z,6.93
2022-10-06T16:51:06.258Z,6.47
2022-10-06T16:53:40.070Z,4.97
2022-10-06T16:56:09.324Z,7.07
2022-10-06T16:58:41.665Z,4.15
2022-10-06T17:01:09.760Z,4.13
2022-10-06T17:03:36.669Z,5.68
2022-10-06T17:06:05.838Z,4.53
2022-10-06T17:08:35.176Z,5.93
2022-10-06T17:11:04.898Z,10.20
2022-10-06T17:13:32.075Z,8.23
2022-10-06T17:16:01.119Z,2.75
2022-10-06T17:18:28.173Z,4.32
2022-10-06T17:20:56.467Z,5.93
2022-10-06T17:23:23.349Z,4.30
2022-10-06T17:26:04.406Z,5.47
2022-10-06T17:28:31.021Z,8.18
2022-10-06T17:31:01.519Z,4.40
2022-10-06T17:33:34.540Z,10.88
2022-10-06T17:36:27.296Z,4.10
2022-10-06T17:38:58.210Z,8.45
2022-10-06T17:41:32.772Z,9.32
2022-10-06T17:44:03.169Z,5.35
2022-10-06T17:46:44.152Z,8.70
2022-10-06T17:49:12.960Z,4.65
2022-10-06T17:51:41.514Z,6.85
2022-10-06T17:58:41.975Z,7.47
2022-10-06T18:03:55.473Z,5.07
2022-10-06T18:06:30.862Z,6.93
2022-10-06T18:09:02.471Z,5.43
2022-10-06T18:14:18.292Z,7.45
2022-10-06T18:16:52.123Z,6.15
2022-10-06T18:19:29.388Z,6.63
2022-10-06T18:22:10.224Z,8.73
2022-10-06T18:24:37.824Z,6.10
2022-10-06T18:27:06.446Z,5.38
2022-10-06T18:29:37.748Z,6.60
2022-10-06T18:32:58.976Z,4.68
2022-10-06T18:37:38.713Z,7.03
2022-10-06T18:40:08.745Z,6.50
2022-10-06T18:42:35.939Z,6.60
2022-10-06T18:45:21.746Z,8.73
2022-10-06T18:48:06.627Z,7.78
2022-10-06T18:50:33.461Z,8.00
2022-10-06T18:53:00.063Z,7.38
2022-10-06T18:55:27.927Z,7.10
2022-10-06T19:00:20.999Z,12.82
2022-10-06T19:02:52.120Z,15.98
2022-10-06T19:05:18.648Z,9.90
2022-10-06T19:07:45.580Z,7.68
2022-10-06T19:10:12.295Z,11.00
2022-10-06T19:12:39.042Z,10.88
2022-10-06T19:15:05.964Z,11.95
2022-10-06T19:17:32.663Z,8.25
2022-10-06T19:19:59.182Z,11.40
2022-10-06T19:22:25.724Z,18.40
2022-10-06T19:24:52.451Z,12.80
2022-10-06T19:27:24.286Z,14.50
2022-10-06T19:29:54.238Z,10.57
2022-10-06T19:32:28.083Z,11.15
2022-10-06T19:34:58.827Z,13.43
2022-10-06T19:37:28.010Z,15.40
2022-10-06T19:39:54.548Z,15.27
2022-10-06T19:42:39.535Z,16.15
2022-10-06T19:45:07.915Z,20.08
2022-10-06T19:47:34.485Z,17.05
2022-10-06T19:50:05.863Z,10.70
2022-10-06T19:52:37.046Z,11.48
2022-10-06T19:55:03.887Z,12.93
2022-10-06T19:57:31.789Z,14.35
2022-10-06T20:02:26.067Z,9.05
2022-10-06T20:04:52.588Z,11.02
2022-10-06T20:07:21.772Z,11.57
2022-10-06T20:09:48.667Z,6.93
2022-10-06T20:12:17.815Z,12.15
2022-10-06T20:14:47.425Z,9.68
2022-10-06T20:17:13.936Z,10.15
2022-10-06T20:19:40.455Z,12.05
2022-10-06T20:22:07.163Z,14.27
2022-10-06T20:24:33.937Z,18.45
2022-10-06T20:27:00.491Z,6.38
2022-10-06T20:29:28.173Z,10.35
2022-10-06T20:31:56.503Z,7.43
2022-10-06T20:34:26.228Z,12.90
2022-10-06T20:36:55.928Z,10.57
2022-10-06T20:39:42.894Z,13.52
2022-10-06T20:42:14.863Z,12.82
2022-10-06T20:44:44.150Z,8.45
2022-10-06T20:47:12.286Z,12.32
2022-10-06T20:49:39.086Z,10.10
2022-10-06T20:52:06.249Z,8.40
2022-10-06T20:54:37.522Z,9.97
2022-10-06T20:57:06.366Z,8.48
2022-10-06T20:59:35.659Z,10.57
2022-10-06T21:02:03.697Z,5.22
2022-10-06T21:06:57.854Z,12.43
2022-10-06T21:09:24.929Z,9.93
2022-10-06T21:11:52.096Z,10.10
2022-10-06T21:14:19.353Z,6.57
2022-10-06T21:16:48.298Z,6.85
2022-10-06T21:19:17.471Z,5.78
2022-10-06T21:21:46.348Z,9.27
2022-10-06T21:24:13.089Z,4.45
2022-10-06T21:26:42.836Z,6.90
2022-10-06T21:29:11.771Z,11.05
2022-10-06T21:31:38.658Z,7.55
2022-10-06T21:34:05.583Z,4.10
2022-10-06T21:36:32.566Z,7.95
2022-10-06T21:39:06.694Z,9.10
2022-10-06T21:41:35.937Z,7.88
2022-10-06T21:44:12.620Z,6.22
2022-10-06T21:46:48.021Z,7.70
2022-10-06T21:49:17.571Z,8.40
2022-10-06T21:51:46.360Z,10.02
2022-10-06T21:54:13.618Z,9.13
2022-10-06T21:56:40.586Z,9.97
2022-10-06T21:59:08.332Z,12.00
2022-10-06T22:01:40.304Z,8.35
2022-10-06T22:04:07.668Z,8.35
2022-10-06T22:06:36.102Z,7.30
2022-10-06T22:09:05.824Z,7.53
2022-10-06T22:11:35.901Z,7.75
2022-10-06T22:14:05.824Z,9.38
2022-10-06T22:16:34.599Z,10.55
2022-10-06T22:19:03.366Z,7.45
2022-10-06T22:21:36.101Z,10.02
2022-10-06T22:24:05.677Z,7.20
2022-10-06T22:26:34.909Z,8.10
2022-10-06T22:29:01.737Z,14.10
2022-10-06T22:31:28.839Z,9.02
2022-10-06T22:33:57.446Z,9.40
2022-10-06T22:36:25.916Z,15.88
2022-10-06T22:38:53.679Z,13.02
2022-10-06T22:41:20.899Z,16.50
2022-10-06T22:43:48.382Z,14.52
2022-10-06T22:46:15.419Z,12.80
2022-10-06T22:48:42.292Z,11.57
2022-10-06T22:51:09.075Z,13.25
2022-10-06T22:53:35.985Z,11.85
2022-10-06T22:56:04.035Z,9.85
2022-10-06T22:58:31.181Z,7.07
2022-10-06T23:00:58.002Z,9.93
2022-10-06T23:03:25.983Z,15.00
2022-10-06T23:08:31.263Z,11.70
2022-10-06T23:11:11.462Z,9.38
2022-10-06T23:13:38.271Z,8.18
2022-10-06T23:16:08.453Z,12.40
2022-10-06T23:18:37.564Z,9.75
2022-10-06T23:21:17.825Z,10.25
2022-10-06T23:23:45.534Z,13.75
2022-10-06T23:26:14.462Z,11.20
2022-10-06T23:28:41.803Z,7.60
2022-10-06T23:31:10.926Z,6.07
2022-10-06T23:33:37.889Z,8.27
2022-10-06T23:36:07.733Z,8.52
2022-10-06T23:38:35.758Z,10.15
2022-10-06T23:43:29.242Z,9.05
2022-10-06T23:45:56.110Z,9.88
2022-10-06T23:48:22.935Z,10.38
2022-10-06T23:51:01.134Z,13.68
2022-10-06T23:53:29.010Z,10.88
2022-10-06T23:55:55.787Z,9.07
